Time;durP1;ratioP1;P1;durP2;ratioP2;P2;SDS_P1;SDS_P2;PMS_P1;PMS_P2;Temp;Humidity;BMP_temperature;BMP_pressure;BME280_temperature;BME280_humidity;BME280_pressure;Samples;Min_cycle;Max_cycle;Signal;HPM_P1;HPM_P2
2023/03/23 00:01:02;;;;;;;8.55;5.15;;;;;;;;;;4969988;28;98478;-78
2023/03/23 00:03:28;;;;;;;11.13;5.13;;;;;;;;;;4969765;28;99660;-78
2023/03/23 00:06:04;;;;;;;10.38;5.50;;;;;;;;;;4968688;28;99842;-78
2023/03/23 00:08:29;;;;;;;7.85;4.63;;;;;;;;;;4969559;28;98175;-78
2023/03/23 00:10:57;;;;;;;13.82;5.80;;;;;;;;;;4973878;28;98595;-79
2023/03/23 00:13:23;;;;;;;5.15;4.65;;;;;;;;;;4969351;28;98218;-79
2023/03/23 00:15:49;;;;;;;7.00;4.70;;;;;;;;;;4970599;28;98437;-78
2023/03/23 00:18:21;;;;;;;8.38;4.97;;;;;;;;;;4965726;28;99691;-79
2023/03/23 00:20:53;;;;;;;6.78;4.97;;;;;;;;;;4950736;28;98388;-79
2023/03/23 00:23:20;;;;;;;6.40;5.13;;;;;;;;;;4963198;28;98845;-79
2023/03/23 00:25:47;;;;;;;11.43;4.97;;;;;;;;;;4968691;28;100079;-78
2023/03/23 00:28:12;;;;;;;6.90;4.63;;;;;;;;;;4968887;28;99500;-78
2023/03/23 00:30:38;;;;;;;6.68;4.75;;;;;;;;;;4970081;28;98392;-78
2023/03/23 00:33:04;;;;;;;9.73;4.40;;;;;;;;;;4974176;28;98832;-78
2023/03/23 00:35:30;;;;;;;6.35;4.60;;;;;;;;;;4976248;28;100576;-79
2023/03/23 00:37:56;;;;;;;10.13;4.63;;;;;;;;;;4966741;28;99140;-79
2023/03/23 00:40:21;;;;;;;6.45;4.45;;;;;;;;;;4968944;28;98207;-79
2023/03/23 00:42:48;;;;;;;5.10;4.20;;;;;;;;;;4967723;28;99239;-79
2023/03/23 00:45:14;;;;;;;9.90;4.28;;;;;;;;;;4969149;28;98956;-78
2023/03/23 00:47:41;;;;;;;4.97;4.35;;;;;;;;;;4967095;28;98252;-78
2023/03/23 00:50:07;;;;;;;7.35;3.55;;;;;;;;;;4969347;28;99362;-78
2023/03/23 00:52:33;;;;;;;4.20;3.67;;;;;;;;;;4968646;28;100029;-78
2023/03/23 00:54:58;;;;;;;8.02;3.90;;;;;;;;;;4971800;28;98402;-77
2023/03/23 00:57:24;;;;;;;7.28;3.83;;;;;;;;;;4968093;28;100512;-79
2023/03/23 00:59:53;;;;;;;6.80;3.78;;;;;;;;;;4967590;28;98334;-79
2023/03/23 01:02:19;;;;;;;4.03;3.70;;;;;;;;;;4966573;28;101039;-79
2023/03/23 01:04:45;;;;;;;7.88;3.67;;;;;;;;;;4967028;28;98910;-78
2023/03/23 01:07:12;;;;;;;8.05;4.07;;;;;;;;;;4968196;28;98465;-79
2023/03/23 01:09:44;;;;;;;3.75;3.40;;;;;;;;;;4968914;28;98429;-78
2023/03/23 01:12:11;;;;;;;;;;;;;;;;;;4969497;28;98978;-78
2023/03/23 01:14:36;;;;;;;6.20;3.67;;;;;;;;;;4969276;28;98245;-78
2023/03/23 01:17:01;;;;;;;11.13;3.70;;;;;;;;;;4972320;28;98200;-78
2023/03/23 01:19:28;;;;;;;4.72;3.30;;;;;;;;;;4969581;28;98164;-77
2023/03/23 01:21:53;;;;;;;9.60;3.88;;;;;;;;;;4967230;28;99387;-78
2023/03/23 01:24:19;;;;;;;6.55;3.97;;;;;;;;;;4969962;28;99028;-78
2023/03/23 01:26:44;;;;;;;3.63;3.08;;;;;;;;;;4969636;28;98285;-78
2023/03/23 01:29:10;;;;;;;13.07;4.30;;;;;;;;;;4970842;28;98420;-78
2023/03/23 01:31:38;;;;;;;5.45;3.75;;;;;;;;;;4968230;28;99166;-78
2023/03/23 01:34:05;;;;;;;4.38;3.25;;;;;;;;;;4967082;28;98365;-77
2023/03/23 01:36:32;;;;;;;3.83;3.50;;;;;;;;;;4966883;28;101278;-78
2023/03/23 01:39:03;;;;;;;6.25;3.65;;;;;;;;;;5003060;28;99246;-77
2023/03/23 01:41:30;;;;;;;3.47;3.00;;;;;;;;;;4970261;28;100894;-78
2023/03/23 01:44:01;;;;;;;4.60;3.15;;;;;;;;;;4966156;28;98913;-79
2023/03/23 01:46:31;;;;;;;5.40;2.75;;;;;;;;;;4967205;28;98200;-79
2023/03/23 01:48:57;;;;;;;3.72;3.00;;;;;;;;;;4968994;28;98537;-79
2023/03/23 01:51:24;;;;;;;4.78;3.03;;;;;;;;;;4966639;28;99128;-79
2023/03/23 01:53:53;;;;;;;3.10;2.72;;;;;;;;;;4967846;28;98312;-79
2023/03/23 01:56:24;;;;;;;4.22;3.00;;;;;;;;;;4967591;28;101100;-79
2023/03/23 01:58:50;;;;;;;8.10;3.03;;;;;;;;;;5002761;28;99944;-80
2023/03/23 02:01:16;;;;;;;4.75;3.13;;;;;;;;;;4967789;28;100902;-80
2023/03/23 02:03:43;;;;;;;4.10;3.00;;;;;;;;;;4967039;28;101887;-80
2023/03/23 02:06:09;;;;;;;5.70;3.30;;;;;;;;;;4971531;28;98877;-79
2023/03/23 02:08:53;;;;;;;5.03;3.42;;;;;;;;;;4971023;28;100699;-80
2023/03/23 02:11:20;;;;;;;6.50;3.15;;;;;;;;;;5003277;28;101282;-79
2023/03/23 02:13:46;;;;;;;4.95;3.10;;;;;;;;;;4970059;28;98334;-79
2023/03/23 02:16:15;;;;;;;3.45;3.15;;;;;;;;;;4969791;28;99622;-79
2023/03/23 02:18:51;;;;;;;7.10;3.90;;;;;;;;;;4969062;28;100882;-79
2023/03/23 02:21:37;;;;;;;4.05;3.50;;;;;;;;;;4974066;28;99212;-79
2023/03/23 02:24:15;;;;;;;5.20;3.22;;;;;;;;;;4969885;28;101241;-79
2023/03/23 02:26:47;;;;;;;5.38;3.40;;;;;;;;;;4970003;28;98353;-79
2023/03/23 02:29:13;;;;;;;6.05;3.50;;;;;;;;;;4973510;28;99713;-79
2023/03/23 02:31:58;;;;;;;4.30;3.25;;;;;;;;;;4969915;28;99627;-79
2023/03/23 02:34:28;;;;;;;3.17;2.80;;;;;;;;;;4970154;28;98636;-79
2023/03/23 02:36:53;;;;;;;3.42;3.08;;;;;;;;;;4962494;28;100220;-79
2023/03/23 02:39:29;;;;;;;4.15;3.72;;;;;;;;;;5002176;28;100277;-80
2023/03/23 02:42:01;;;;;;;3.00;2.80;;;;;;;;;;4970793;28;98627;-80
2023/03/23 02:44:29;;;;;;;3.85;3.35;;;;;;;;;;4973063;28;99470;-79
2023/03/23 02:46:56;;;;;;;3.60;3.30;;;;;;;;;;4969376;28;98300;-80
2023/03/23 02:49:23;;;;;;;3.47;3.17;;;;;;;;;;4972476;28;98609;-79
2023/03/23 02:51:49;;;;;;;5.13;3.10;;;;;;;;;;4969433;28;101592;-79
2023/03/23 02:54:16;;;;;;;5.20;3.60;;;;;;;;;;4969533;28;98382;-79
2023/03/23 02:56:42;;;;;;;7.15;3.90;;;;;;;;;;4971479;28;98144;-79
2023/03/23 02:59:16;;;;;;;3.95;3.17;;;;;;;;;;4970205;28;99100;-78
2023/03/23 03:01:41;;;;;;;6.28;3.83;;;;;;;;;;4969691;28;98314;-78
2023/03/23 03:04:12;;;;;;;3.65;3.28;;;;;;;;;;4969797;28;99431;-79
2023/03/23 03:06:44;;;;;;;3.95;3.45;;;;;;;;;;4973682;28;101640;-79
2023/03/23 03:09:18;;;;;;;4.13;3.63;;;;;;;;;;4969784;28;99492;-80
2023/03/23 03:11:46;;;;;;;4.22;2.90;;;;;;;;;;4970731;28;99103;-79
2023/03/23 03:14:19;;;;;;;3.50;3.20;;;;;;;;;;4968174;28;98504;-79
2023/03/23 03:17:04;;;;;;;4.07;3.28;;;;;;;;;;4968752;28;99453;-79
2023/03/23 03:19:32;;;;;;;6.85;4.15;;;;;;;;;;4969330;28;99012;-79
2023/03/23 03:21:58;;;;;;;3.75;3.08;;;;;;;;;;4968440;28;98489;-79
2023/03/23 03:24:39;;;;;;;3.55;2.90;;;;;;;;;;4969525;28;101034;-79
2023/03/23 03:27:10;;;;;;;5.55;3.25;;;;;;;;;;4968286;28;101370;-79
2023/03/23 03:29:45;;;;;;;4.88;2.90;;;;;;;;;;4971879;28;98661;-79
2023/03/23 03:32:12;;;;;;;3.25;2.80;;;;;;;;;;4968306;28;102001;-79
2023/03/23 03:34:38;;;;;;;3.45;3.10;;;;;;;;;;4970379;28;98673;-79
2023/03/23 03:37:05;;;;;;;3.38;3.08;;;;;;;;;;4968005;28;100797;-78
2023/03/23 03:39:34;;;;;;;6.25;2.70;;;;;;;;;;4969784;28;101679;-78
2023/03/23 03:42:00;;;;;;;5.05;3.13;;;;;;;;;;4968710;28;98352;-78
2023/03/23 03:44:26;;;;;;;3.88;2.78;;;;;;;;;;4968211;28;100740;-78
2023/03/23 03:46:51;;;;;;;2.83;2.55;;;;;;;;;;4967843;28;99420;-78
2023/03/23 03:49:16;;;;;;;4.68;2.78;;;;;;;;;;4973837;28;98605;-79
2023/03/23 03:51:42;;;;;;;6.25;2.35;;;;;;;;;;4968454;28;101032;-78
2023/03/23 03:54:15;;;;;;;2.38;2.17;;;;;;;;;;4968980;28;98369;-78
2023/03/23 03:56:41;;;;;;;4.57;3.00;;;;;;;;;;4967142;28;100716;-78
2023/03/23 03:59:25;;;;;;;;;;;;;;;;;;4965496;28;99182;-79
2023/03/23 04:02:19;;;;;;;4.43;2.58;;;;;;;;;;4966890;28;98783;-79
2023/03/23 04:04:47;;;;;;;5.40;2.40;;;;;;;;;;4967855;28;98624;-78
2023/03/23 04:07:13;;;;;;;4.65;1.95;;;;;;;;;;4968801;28;101461;-79
2023/03/23 04:09:39;;;;;;;6.53;2.53;;;;;;;;;;4969437;28;98901;-78
2023/03/23 04:12:05;;;;;;;4.57;2.30;;;;;;;;;;4971590;28;100227;-78
2023/03/23 04:15:09;;;;;;;4.70;2.30;;;;;;;;;;4970317;28;99253;-78
2023/03/23 04:17:35;;;;;;;3.92;2.17;;;;;;;;;;4955374;28;100560;-79
2023/03/23 04:20:06;;;;;;;12.30;2.55;;;;;;;;;;4965156;28;98905;-78
2023/03/23 04:22:32;;;;;;;5.55;2.50;;;;;;;;;;4965586;28;98129;-79
2023/03/23 04:25:00;;;;;;;6.68;1.83;;;;;;;;;;4964577;28;99916;-78
2023/03/23 04:27:27;;;;;;;3.88;1.90;;;;;;;;;;4949706;28;99977;-78
2023/03/23 04:29:57;;;;;;;6.22;2.13;;;;;;;;;;4965519;28;98169;-77
2023/03/23 04:32:43;;;;;;;7.88;3.45;;;;;;;;;;4966894;28;98802;-78
2023/03/23 04:35:13;;;;;;;5.47;2.38;;;;;;;;;;4969842;28;99809;-78
2023/03/23 04:37:47;;;;;;;9.63;3.40;;;;;;;;;;4964740;28;100799;-78
2023/03/23 04:40:16;;;;;;;6.03;1.77;;;;;;;;;;4967419;28;98963;-77
2023/03/23 04:42:50;;;;;;;7.32;2.25;;;;;;;;;;4968351;28;98208;-77
2023/03/23 04:45:31;;;;;;;;;;;;;;;;;;4968689;28;100539;-78
2023/03/23 04:47:59;;;;;;;6.88;2.10;;;;;;;;;;4970364;28;98177;-78
2023/03/23 04:50:34;;;;;;;6.30;2.20;;;;;;;;;;4988884;28;98348;-77
2023/03/23 04:53:09;;;;;;;4.82;2.22;;;;;;;;;;4971059;28;98402;-78
2023/03/23 04:55:38;;;;;;;6.53;2.25;;;;;;;;;;4976973;28;99831;-78
2023/03/23 04:58:07;;;;;;;4.25;1.92;;;;;;;;;;4993967;28;98253;-79
2023/03/23 05:00:49;;;;;;;9.10;2.10;;;;;;;;;;4973377;28;101100;-77
2023/03/23 05:03:18;;;;;;;7.13;1.73;;;;;;;;;;4972421;28;98302;-78
2023/03/23 05:05:52;;;;;;;8.43;2.03;;;;;;;;;;4972172;28;101116;-77
2023/03/23 05:08:19;;;;;;;5.65;1.92;;;;;;;;;;4967953;28;101467;-78
2023/03/23 05:10:52;;;;;;;9.25;2.50;;;;;;;;;;4970790;28;98258;-77
2023/03/23 05:13:17;;;;;;;5.22;1.83;;;;;;;;;;4968979;28;98402;-78
2023/03/23 05:15:47;;;;;;;10.23;2.17;;;;;;;;;;4968241;28;101270;-78
2023/03/23 05:18:13;;;;;;;10.88;2.70;;;;;;;;;;4951681;28;98303;-77
2023/03/23 05:20:39;;;;;;;8.77;2.50;;;;;;;;;;4968022;28;98412;-78
2023/03/23 05:23:10;;;;;;;12.45;3.78;;;;;;;;;;4977455;28;98258;-77
2023/03/23 05:25:39;;;;;;;6.57;2.67;;;;;;;;;;4969711;28;98494;-76
2023/03/23 05:28:11;;;;;;;13.45;3.25;;;;;;;;;;4966857;28;101032;-77
2023/03/23 05:31:05;;;;;;;10.95;2.20;;;;;;;;;;4967846;28;98254;-77
2023/03/23 05:33:32;;;;;;;4.25;2.15;;;;;;;;;;4968861;28;98248;-76
2023/03/23 05:36:13;;;;;;;13.85;2.95;;;;;;;;;;4999680;28;101494;-77
2023/03/23 05:39:09;;;;;;;11.95;2.67;;;;;;;;;;4931811;28;98250;-76
2023/03/23 05:41:59;;;;;;;6.05;2.55;;;;;;;;;;5001876;28;99535;-75
2023/03/23 05:44:33;;;;;;;14.70;3.45;;;;;;;;;;4974681;28;100452;-76
2023/03/23 05:46:59;;;;;;;12.85;3.05;;;;;;;;;;4971661;28;98211;-75
2023/03/23 05:49:26;;;;;;;11.52;2.97;;;;;;;;;;4969334;28;98794;-78
2023/03/23 05:51:53;;;;;;;10.38;2.75;;;;;;;;;;4970468;28;98399;-78
2023/03/23 05:54:18;;;;;;;13.05;3.08;;;;;;;;;;4970525;28;98624;-77
2023/03/23 05:56:48;;;;;;;8.57;2.60;;;;;;;;;;4969841;28;99123;-78
2023/03/23 05:59:36;;;;;;;15.43;3.05;;;;;;;;;;4970822;28;98144;-76
2023/03/23 06:02:04;;;;;;;19.95;2.95;;;;;;;;;;4970311;28;100975;-77
2023/03/23 06:04:29;;;;;;;12.98;2.92;;;;;;;;;;4972214;28;98846;-77
2023/03/23 06:07:06;;;;;;;14.07;2.80;;;;;;;;;;4970198;28;100349;-77
2023/03/23 06:09:32;;;;;;;11.57;2.85;;;;;;;;;;4970063;28;98978;-77
2023/03/23 06:12:04;;;;;;;16.15;3.78;;;;;;;;;;4967877;28;98431;-75
2023/03/23 06:14:43;;;;;;;13.73;3.20;;;;;;;;;;4969204;28;98515;-78
2023/03/23 06:17:09;;;;;;;15.60;3.83;;;;;;;;;;4968911;28;99156;-78
2023/03/23 06:19:34;;;;;;;21.13;3.72;;;;;;;;;;4970085;28;98458;-78
2023/03/23 06:22:10;;;;;;;7.57;2.55;;;;;;;;;;4970167;28;101215;-75
2023/03/23 06:24:56;;;;;;;19.42;3.92;;;;;;;;;;4968909;28;98617;-77
2023/03/23 06:27:28;;;;;;;9.70;4.07;;;;;;;;;;4973348;28;98273;-76
2023/03/23 06:29:56;;;;;;;11.88;3.38;;;;;;;;;;4969881;28;98971;-75
2023/03/23 06:32:22;;;;;;;9.77;3.15;;;;;;;;;;4969677;28;98489;-76
2023/03/23 06:34:48;;;;;;;15.02;3.83;;;;;;;;;;4971300;28;98767;-75
2023/03/23 06:37:33;;;;;;;11.57;3.40;;;;;;;;;;4961447;28;98735;-75
2023/03/23 06:40:18;;;;;;;;;;;;;;;;;;4969785;28;98551;-76
2023/03/23 06:42:49;;;;;;;;;;;;;;;;;;4971093;28;98487;-77
2023/03/23 06:45:44;;;;;;;8.80;2.80;;;;;;;;;;4962045;28;99862;-76
2023/03/23 06:48:38;;;;;;;14.07;3.47;;;;;;;;;;4948995;28;98417;-76
2023/03/23 06:51:05;;;;;;;21.75;4.47;;;;;;;;;;4962971;28;98255;-76
2023/03/23 06:53:31;;;;;;;18.10;3.58;;;;;;;;;;4969475;28;98301;-76
2023/03/23 06:55:59;;;;;;;8.32;3.78;;;;;;;;;;4967313;28;101352;-75
2023/03/23 06:58:25;;;;;;;12.38;3.55;;;;;;;;;;4977507;28;98984;-76
2023/03/23 07:00:56;;;;;;;12.15;3.40;;;;;;;;;;4964491;28;98520;-75
2023/03/23 07:03:27;;;;;;;12.75;4.25;;;;;;;;;;4955520;28;101443;-77
2023/03/23 07:05:53;;;;;;;11.85;3.28;;;;;;;;;;4964324;28;101301;-75
2023/03/23 07:08:21;;;;;;;13.00;3.70;;;;;;;;;;4979173;28;98359;-76
2023/03/23 07:10:52;;;;;;;9.43;3.63;;;;;;;;;;4970737;28;98160;-75
2023/03/23 07:13:21;;;;;;;8.10;3.22;;;;;;;;;;4963375;28;101294;-75
2023/03/23 07:15:51;;;;;;;17.33;4.63;;;;;;;;;;4966620;28;100912;-75
2023/03/23 07:18:17;;;;;;;10.73;4.13;;;;;;;;;;4994703;28;101033;-75
2023/03/23 07:20:49;;;;;;;12.60;3.30;;;;;;;;;;4969515;28;98260;-75
2023/03/23 07:23:15;;;;;;;8.73;3.10;;;;;;;;;;4989480;28;98589;-75
2023/03/23 07:25:46;;;;;;;8.93;3.13;;;;;;;;;;4956257;28;98941;-75
2023/03/23 07:28:16;;;;;;;14.75;3.88;;;;;;;;;;4991159;28;98295;-75
2023/03/23 07:30:42;;;;;;;8.85;3.30;;;;;;;;;;4959734;28;100300;-75
2023/03/23 07:33:09;;;;;;;12.43;3.13;;;;;;;;;;4954314;28;101258;-75
2023/03/23 07:35:35;;;;;;;10.52;3.17;;;;;;;;;;4952756;28;98696;-75
2023/03/23 07:38:07;;;;;;;11.40;3.60;;;;;;;;;;4949708;28;102101;-75
2023/03/23 07:40:33;;;;;;;10.90;3.70;;;;;;;;;;4966316;28;98230;-75
2023/03/23 07:43:04;;;;;;;12.05;3.38;;;;;;;;;;4970029;28;98399;-75
2023/03/23 07:45:50;;;;;;;13.85;4.00;;;;;;;;;;4960676;28;99164;-76
2023/03/23 07:48:16;;;;;;;13.18;3.50;;;;;;;;;;4964250;28;99854;-75
2023/03/23 07:50:42;;;;;;;10.00;2.42;;;;;;;;;;4966263;28;99323;-76
2023/03/23 07:53:12;;;;;;;9.65;3.50;;;;;;;;;;4955896;28;101152;-75
2023/03/23 07:55:39;;;;;;;15.05;3.20;;;;;;;;;;4958885;28;98301;-75
2023/03/23 07:58:26;;;;;;;12.73;3.05;;;;;;;;;;4962399;28;98283;-75
2023/03/23 08:00:56;;;;;;;14.75;2.85;;;;;;;;;;4955330;28;98622;-76
2023/03/23 08:03:22;;;;;;;11.65;2.88;;;;;;;;;;4959825;28;98709;-74
2023/03/23 08:05:57;;;;;;;9.57;2.88;;;;;;;;;;4967357;28;99165;-75
2023/03/23 08:08:47;;;;;;;13.18;3.15;;;;;;;;;;4957206;28;98603;-74
2023/03/23 08:11:31;;;;;;;13.20;3.05;;;;;;;;;;4954516;28;98234;-75
2023/03/23 08:14:32;;;;;;;11.15;3.03;;;;;;;;;;4952796;28;98793;-75
2023/03/23 08:17:16;;;;;;;16.00;4.00;;;;;;;;;;4958126;28;100600;-73
2023/03/23 08:20:18;;;;;;;8.07;3.22;;;;;;;;;;4937935;28;98425;-73
2023/03/23 08:22:59;;;;;;;8.27;2.83;;;;;;;;;;4956557;28;98342;-76
2023/03/23 08:25:53;;;;;;;12.93;3.20;;;;;;;;;;4953320;28;101010;-76
2023/03/23 08:28:18;;;;;;;15.57;2.90;;;;;;;;;;4956303;28;98722;-75
2023/03/23 08:31:07;;;;;;;13.35;3.20;;;;;;;;;;4956103;28;98186;-74
2023/03/23 08:34:04;;;;;;;9.30;2.47;;;;;;;;;;4960540;28;98275;-77
2023/03/23 08:36:30;;;;;;;10.32;3.03;;;;;;;;;;4954746;28;98898;-76
2023/03/23 08:39:08;;;;;;;8.88;3.35;;;;;;;;;;4952908;28;98680;-77
2023/03/23 08:42:09;;;;;;;10.00;3.03;;;;;;;;;;4930319;28;98218;-75
2023/03/23 08:45:12;;;;;;;5.93;2.65;;;;;;;;;;4950155;28;99034;-76
2023/03/23 08:47:51;;;;;;;10.05;2.55;;;;;;;;;;4951127;28;98221;-76
2023/03/23 08:50:35;;;;;;;10.73;3.17;;;;;;;;;;4959654;28;98491;-76
2023/03/23 08:53:20;;;;;;;7.13;2.67;;;;;;;;;;4958133;28;100302;-76
2023/03/23 08:55:46;;;;;;;12.32;3.10;;;;;;;;;;4957747;28;98435;-76
2023/03/23 08:58:31;;;;;;;11.30;3.17;;;;;;;;;;4953830;28;101659;-74
2023/03/23 09:00:56;;;;;;;7.07;2.80;;;;;;;;;;4968759;28;98322;-74
2023/03/23 09:03:48;;;;;;;11.80;3.35;;;;;;;;;;4962220;28;98983;-73
2023/03/23 09:06:46;;;;;;;6.65;2.50;;;;;;;;;;4973685;28;99314;-73
2023/03/23 09:09:12;;;;;;;12.80;3.00;;;;;;;;;;4960563;28;98362;-73
2023/03/23 09:11:38;;;;;;;8.32;3.00;;;;;;;;;;4956999;28;99931;-74
2023/03/23 09:14:04;;;;;;;7.55;2.50;;;;;;;;;;4978822;28;98250;-72
2023/03/23 09:16:29;;;;;;;38.13;3.28;;;;;;;;;;4976266;28;98400;-73
2023/03/23 09:18:56;;;;;;;8.98;2.70;;;;;;;;;;4975497;28;99607;-74
2023/03/23 09:21:22;;;;;;;9.20;2.78;;;;;;;;;;4976236;28;98293;-73
2023/03/23 09:23:48;;;;;;;11.57;3.38;;;;;;;;;;4975859;28;99452;-74
2023/03/23 09:26:13;;;;;;;14.60;4.30;;;;;;;;;;4974903;28;100026;-74
2023/03/23 09:28:39;;;;;;;9.93;2.83;;;;;;;;;;4985005;28;98362;-73
2023/03/23 09:31:04;;;;;;;8.80;3.10;;;;;;;;;;4980144;28;99763;-74
2023/03/23 09:33:33;;;;;;;10.02;3.42;;;;;;;;;;4980949;28;98296;-73
2023/03/23 09:35:58;;;;;;;9.38;3.08;;;;;;;;;;4983845;28;98295;-74
2023/03/23 09:38:24;;;;;;;9.70;3.05;;;;;;;;;;4965817;28;99980;-73
2023/03/23 09:40:50;;;;;;;12.73;3.10;;;;;;;;;;4977377;28;98318;-74
2023/03/23 09:43:18;;;;;;;12.30;3.10;;;;;;;;;;4974035;28;98737;-73
2023/03/23 09:45:43;;;;;;;16.80;3.33;;;;;;;;;;4958609;28;100160;-73
2023/03/23 09:48:11;;;;;;;15.88;3.17;;;;;;;;;;4967420;28;98573;-74
2023/03/23 09:50:40;;;;;;;15.15;2.70;;;;;;;;;;4959652;28;99398;-74
2023/03/23 09:53:11;;;;;;;13.18;3.55;;;;;;;;;;4970935;28;99522;-74
2023/03/23 09:55:37;;;;;;;13.13;2.75;;;;;;;;;;4971930;28;98495;-74
2023/03/23 09:58:26;;;;;;;13.40;2.42;;;;;;;;;;4972815;28;98800;-75
2023/03/23 10:00:58;;;;;;;18.77;4.07;;;;;;;;;;4972683;28;99001;-74
2023/03/23 10:03:30;;;;;;;16.05;3.75;;;;;;;;;;4963419;28;99463;-74
2023/03/23 10:05:55;;;;;;;9.30;3.30;;;;;;;;;;4963183;28;102215;-74
2023/03/23 10:08:22;;;;;;;14.05;3.30;;;;;;;;;;4964971;28;98301;-74
2023/03/23 10:11:08;;;;;;;14.75;3.22;;;;;;;;;;4961819;28;99444;-75
2023/03/23 10:13:39;;;;;;;11.98;3.20;;;;;;;;;;4961124;28;99316;-74
2023/03/23 10:16:11;;;;;;;11.95;3.75;;;;;;;;;;4959698;28;98184;-74
2023/03/23 10:18:36;;;;;;;11.63;2.70;;;;;;;;;;4963734;28;101483;-74
2023/03/23 10:21:03;;;;;;;13.25;3.13;;;;;;;;;;4961555;28;98597;-74
2023/03/23 10:23:37;;;;;;;14.90;3.03;;;;;;;;;;4971209;28;99521;-74
2023/03/23 10:26:21;;;;;;;11.57;2.90;;;;;;;;;;4964896;28;98899;-74
2023/03/23 10:29:19;;;;;;;12.73;2.90;;;;;;;;;;4966436;28;99141;-75
2023/03/23 10:32:03;;;;;;;14.73;2.78;;;;;;;;;;4949981;28;99360;-75
2023/03/23 10:34:34;;;;;;;13.85;2.90;;;;;;;;;;4965780;28;100319;-75
2023/03/23 10:37:06;;;;;;;11.05;2.70;;;;;;;;;;4966325;28;98319;-75
2023/03/23 10:39:34;;;;;;;10.00;2.63;;;;;;;;;;4961272;28;101199;-74
2023/03/23 10:42:06;;;;;;;17.25;3.03;;;;;;;;;;4969847;28;99778;-75
2023/03/23 10:44:32;;;;;;;;;;;;;;;;;;4953506;28;99295;-76
2023/03/23 10:47:05;;;;;;;15.80;2.65;;;;;;;;;;4966155;28;99776;-75
2023/03/23 10:49:38;;;;;;;10.73;2.95;;;;;;;;;;4959123;28;98690;-76
2023/03/23 10:52:03;;;;;;;;;;;;;;;;;;4962733;28;99456;-76
2023/03/23 10:54:33;;;;;;;14.43;3.35;;;;;;;;;;4957661;28;98992;-76
2023/03/23 10:56:58;;;;;;;15.45;4.18;;;;;;;;;;4974496;28;98214;-76
2023/03/23 10:59:27;;;;;;;18.27;3.53;;;;;;;;;;4967595;28;99327;-76
2023/03/23 11:01:54;;;;;;;13.18;3.17;;;;;;;;;;4963335;28;98115;-77
2023/03/23 11:04:20;;;;;;;15.18;3.92;;;;;;;;;;4969139;28;99170;-76
2023/03/23 11:06:47;;;;;;;18.55;3.17;;;;;;;;;;4959937;28;98958;-76
2023/03/23 11:09:15;;;;;;;11.10;2.88;;;;;;;;;;4961186;28;98237;-75
2023/03/23 11:11:42;;;;;;;11.57;3.65;;;;;;;;;;4965864;28;98989;-76
2023/03/23 11:14:18;;;;;;;11.85;2.72;;;;;;;;;;4967844;28;99047;-77
2023/03/23 11:16:52;;;;;;;10.45;2.40;;;;;;;;;;4967216;28;99501;-76
2023/03/23 11:19:23;;;;;;;10.88;2.88;;;;;;;;;;4968807;28;99549;-76
2023/03/23 11:21:51;;;;;;;10.75;3.20;;;;;;;;;;4973225;28;99475;-76
2023/03/23 11:24:16;;;;;;;13.48;2.70;;;;;;;;;;4971584;28;98482;-76
2023/03/23 11:26:43;;;;;;;12.25;3.38;;;;;;;;;;4967597;28;100364;-75
2023/03/23 11:29:11;;;;;;;15.07;4.00;;;;;;;;;;4966119;28;98772;-77
2023/03/23 11:31:44;;;;;;;13.65;3.33;;;;;;;;;;4966223;28;99477;-75
2023/03/23 11:34:15;;;;;;;10.70;3.05;;;;;;;;;;4954013;28;99966;-75
2023/03/23 11:36:41;;;;;;;13.30;2.92;;;;;;;;;;4960116;28;98205;-76
2023/03/23 11:39:27;;;;;;;9.32;2.95;;;;;;;;;;4952556;28;98603;-75
2023/03/23 11:41:53;;;;;;;14.32;3.70;;;;;;;;;;4951655;28;99868;-77
2023/03/23 11:44:20;;;;;;;10.13;2.58;;;;;;;;;;4956315;28;98361;-76
2023/03/23 11:46:59;;;;;;;18.10;2.95;;;;;;;;;;4960766;28;99826;-76
2023/03/23 11:49:29;;;;;;;7.95;3.15;;;;;;;;;;4958305;28;99998;-77
2023/03/23 11:51:59;;;;;;;11.10;3.03;;;;;;;;;;4954033;28;99397;-76
2023/03/23 11:54:24;;;;;;;14.18;3.13;;;;;;;;;;4956088;28;100112;-76
2023/03/23 11:56:50;;;;;;;11.88;3.00;;;;;;;;;;4955749;28;98624;-76
2023/03/23 11:59:26;;;;;;;16.10;2.60;;;;;;;;;;4955972;28;99545;-76
2023/03/23 12:02:10;;;;;;;14.15;2.85;;;;;;;;;;4963576;28;100126;-76
2023/03/23 12:04:40;;;;;;;9.43;3.00;;;;;;;;;;4950612;28;100763;-77
2023/03/23 12:07:12;;;;;;;18.83;4.07;;;;;;;;;;4967915;28;98790;-75
2023/03/23 12:09:41;;;;;;;12.68;2.65;;;;;;;;;;4959281;28;98641;-76
2023/03/23 12:12:10;;;;;;;16.33;3.03;;;;;;;;;;4972807;28;99225;-77
2023/03/23 12:14:41;;;;;;;13.02;3.55;;;;;;;;;;4958836;28;99895;-77
2023/03/23 12:17:19;;;;;;;10.00;3.33;;;;;;;;;;4953356;28;99056;-76
2023/03/23 12:19:56;;;;;;;12.23;3.15;;;;;;;;;;4961355;28;99639;-76
2023/03/23 12:22:42;;;;;;;11.18;3.53;;;;;;;;;;4961099;28;100246;-76
2023/03/23 12:25:42;;;;;;;9.52;3.03;;;;;;;;;;4954597;28;99508;-77
2023/03/23 12:28:26;;;;;;;15.68;3.35;;;;;;;;;;4971473;28;101602;-77
2023/03/23 12:30:54;;;;;;;11.07;3.08;;;;;;;;;;4961248;28;98437;-76
2023/03/23 12:33:26;;;;;;;15.15;3.45;;;;;;;;;;4955084;28;99379;-78
2023/03/23 12:36:14;;;;;;;8.13;2.72;;;;;;;;;;4964315;28;98983;-76
2023/03/23 12:38:58;;;;;;;12.55;2.30;;;;;;;;;;4953906;28;98260;-76
2023/03/23 12:41:39;;;;;;;8.98;2.75;;;;;;;;;;4954720;28;99638;-75
2023/03/23 12:44:09;;;;;;;12.10;2.90;;;;;;;;;;4969088;28;99021;-76
2023/03/23 12:46:45;;;;;;;14.13;3.13;;;;;;;;;;4961205;28;98203;-74
2023/03/23 12:49:11;;;;;;;10.55;2.75;;;;;;;;;;4959272;28;98546;-75
2023/03/23 12:51:58;;;;;;;14.10;2.38;;;;;;;;;;4954350;28;100069;-74
2023/03/23 12:54:33;;;;;;;14.68;2.38;;;;;;;;;;4962375;28;99379;-75
2023/03/23 12:57:13;;;;;;;6.75;2.10;;;;;;;;;;4963877;28;100127;-74
2023/03/23 12:59:59;;;;;;;12.73;2.67;;;;;;;;;;4950840;28;100050;-74
2023/03/23 13:02:37;;;;;;;7.57;2.67;;;;;;;;;;4968348;28;98994;-74
2023/03/23 13:05:05;;;;;;;6.90;2.03;;;;;;;;;;4955612;28;99789;-74
2023/03/23 13:07:48;;;;;;;14.25;2.85;;;;;;;;;;4953384;28;98197;-74
2023/03/23 13:10:27;;;;;;;10.75;2.28;;;;;;;;;;4961309;28;99238;-74
2023/03/23 13:12:53;;;;;;;12.88;2.60;;;;;;;;;;4960791;28;99870;-74
2023/03/23 13:15:18;;;;;;;15.35;2.70;;;;;;;;;;4956318;28;99188;-74
2023/03/23 13:17:46;;;;;;;11.23;3.10;;;;;;;;;;4956243;28;98990;-74
2023/03/23 13:20:31;;;;;;;8.73;2.60;;;;;;;;;;4948058;28;98940;-74
2023/03/23 13:23:00;;;;;;;9.23;2.47;;;;;;;;;;4966184;28;99470;-73
2023/03/23 13:25:36;;;;;;;11.63;2.63;;;;;;;;;;4949967;28;99971;-73
2023/03/23 13:28:01;;;;;;;14.98;2.35;;;;;;;;;;4956261;28;99127;-73
2023/03/23 13:30:28;;;;;;;8.43;2.88;;;;;;;;;;4957994;28;98553;-73
2023/03/23 13:33:02;;;;;;;6.45;1.95;;;;;;;;;;4956205;28;98915;-73
2023/03/23 13:35:33;;;;;;;7.20;2.47;;;;;;;;;;4956451;28;98148;-73
2023/03/23 13:37:58;;;;;;;15.20;2.75;;;;;;;;;;4964117;28;99521;-75
2023/03/23 13:40:27;;;;;;;7.18;2.42;;;;;;;;;;4954670;28;98588;-74
2023/03/23 13:42:56;;;;;;;12.13;2.47;;;;;;;;;;4961961;28;99408;-75
2023/03/23 13:45:24;;;;;;;9.48;2.95;;;;;;;;;;4956494;28;99905;-75
2023/03/23 13:48:01;;;;;;;10.70;2.63;;;;;;;;;;4961200;28;98964;-75
2023/03/23 13:50:30;;;;;;;7.93;2.42;;;;;;;;;;4951951;28;100786;-74
2023/03/23 13:52:58;;;;;;;11.02;2.60;;;;;;;;;;4947503;28;99765;-74
2023/03/23 13:55:36;;;;;;;5.72;2.53;;;;;;;;;;4948823;28;98278;-75
2023/03/23 13:58:01;;;;;;;12.43;2.60;;;;;;;;;;4957019;28;99591;-75
2023/03/23 14:00:32;;;;;;;7.85;2.53;;;;;;;;;;4958237;28;98973;-75
2023/03/23 14:03:09;;;;;;;6.53;2.35;;;;;;;;;;4976525;28;98584;-75
2023/03/23 14:05:45;;;;;;;7.78;2.58;;;;;;;;;;4969069;28;98906;-75
2023/03/23 14:08:20;;;;;;;8.57;2.20;;;;;;;;;;4971544;28;98234;-75
2023/03/23 14:10:48;;;;;;;7.93;2.45;;;;;;;;;;4973557;28;98743;-75
2023/03/23 14:13:20;;;;;;;6.95;2.50;;;;;;;;;;4959807;28;99959;-76
2023/03/23 14:15:56;;;;;;;8.45;2.60;;;;;;;;;;4975280;28;98274;-76
2023/03/23 14:18:22;;;;;;;16.52;3.28;;;;;;;;;;4967056;28;99467;-75
2023/03/23 14:20:47;;;;;;;13.95;3.20;;;;;;;;;;4971983;28;100205;-74
2023/03/23 14:23:15;;;;;;;10.07;2.80;;;;;;;;;;4972578;28;98318;-76
2023/03/23 14:25:40;;;;;;;10.10;2.67;;;;;;;;;;4971979;28;99991;-76
2023/03/23 14:28:16;;;;;;;5.18;2.25;;;;;;;;;;4962864;28;98512;-76
2023/03/23 14:30:41;;;;;;;8.25;2.50;;;;;;;;;;4982184;28;99495;-76
2023/03/23 14:33:10;;;;;;;10.40;2.95;;;;;;;;;;4971090;28;99819;-76
2023/03/23 14:35:38;;;;;;;12.15;3.45;;;;;;;;;;4963197;28;98552;-76
2023/03/23 14:38:04;;;;;;;11.10;3.00;;;;;;;;;;4954795;28;101232;-76
2023/03/23 14:40:30;;;;;;;10.15;2.97;;;;;;;;;;4966471;28;99827;-76
2023/03/23 14:42:56;;;;;;;11.88;3.95;;;;;;;;;;4955682;28;98359;-76
2023/03/23 14:45:22;;;;;;;10.32;2.78;;;;;;;;;;4968127;28;99962;-76
2023/03/23 14:47:50;;;;;;;12.57;3.10;;;;;;;;;;4971403;28;98225;-76
2023/03/23 14:50:23;;;;;;;14.07;2.92;;;;;;;;;;4951747;28;99410;-76
2023/03/23 14:52:48;;;;;;;11.80;3.05;;;;;;;;;;4959336;28;100083;-75
2023/03/23 14:55:19;;;;;;;13.95;3.08;;;;;;;;;;4951980;28;98332;-76
2023/03/23 14:57:45;;;;;;;8.95;2.85;;;;;;;;;;4951168;28;99384;-76
2023/03/23 15:00:16;;;;;;;13.13;3.40;;;;;;;;;;4967857;28;99926;-75
2023/03/23 15:02:44;;;;;;;9.20;2.72;;;;;;;;;;4973201;28;98274;-75